ADDS METAR Data INFO
IDs: Format: Raw Decoded Include TAF

Data at: 0850 UTC 22 Feb 2018

PASC 220753Z 22011KT 10SM FEW100 SCT230 M12/M14 A2985 RMK AO2 SLP109 T11171144
PASC 220653Z 23010KT 10SM SCT110 M11/M14 A2988 RMK AO2 SLP121 T11111139
PASC 220553Z 23010KT 10SM BKN150 M11/M13 A2991 RMK AO2 SLP129 T11111133 11050 21111 56028
PASC 220453Z 24010KT 10SM BKN150 M11/M13 A2993 RMK AO2 SLP137 T11061128
PASC 220353Z 23011KT 10SM BKN240 M11/M14 A2996 RMK AO2 SLP146 T11111139
PASC 212353Z COR 25018KT 7SM OVC055 M05/M07 A3003 RMK AO2 SNE31 SLP170 P0000 60000 T10501067 11033 21050 58007
PASC 212253Z 24017KT 8SM -SN SCT018 OVC047 M04/M06 A3005 RMK AO2 SNB44 SLP177 DRSN P0000 T10441061
PASC 212153Z 23017KT 10SM SCT018 BKN048 OVC065 M05/M07 A3005 RMK AO2 SLP179 T10501067
PASC 212053Z 24019KT 9SM OVC065 M04/M05 A3005 RMK AO2 PK WND 25028/1955 SNB1954E19 SLP177 DRSN P0000 60000 T10391050 53001
PASC 211953Z 25023KT 4SM BLSN BR FEW047 OVC060 M03/M04 A3004 RMK AO2 PK WND 25029/1910 SLP175 T10331044
PASC 211853Z 25021KT 7SM FEW029 SCT042 OVC065 M03/M05 A3004 RMK AO2 SLP176 DRSN T10331050
PASC 211753Z 24019KT 10SM FEW015 BKN035 OVC075 M03/M05 A3005 RMK AO2 SNE08 SLP176 P0000 60000 T10331050 11028 21050 53000
PASC 211653Z 25013KT 8SM -SN OVC019 M03/M04 A3004 RMK AO2 SNB23E32B52 SLP175 P0000 T10331044
PASC 211553Z 25021KT 3SM BR OVC026 M03/M04 A3004 RMK AO2 SNB1457E42 SLP175 P0000 T10281044
PASC 211538Z 25021KT 3SM -SN BR BKN026 OVC035 M03/M04 A3004 RMK AO2 SNB1457 P0000 T10281039
PASC 211453Z 25020KT 7SM FEW023 OVC033 M03/M04 A3005 RMK AO2 SNB03E43 SLP176 P0000 60000 T10281039 51003
PASC 211450Z 25020KT 7SM FEW023 OVC033 M03/M04 A3004 RMK AO2 SNB03E43 P0000
PASC 211425Z 25018KT 3SM -SN BR BKN023 OVC027 M03/M04 A3004 RMK AO2 SNB03 P0000 T10331044
PASC 211410Z 23017KT 2 1/2SM -SN BR BKN023 OVC038 M04/M05 A3004 RMK AO2 VIS 1 3/4V4 SNB03 P0000 T10391050
PASC 211353Z 24017KT 7SM FEW023 SCT035 OVC044 M04/M05 A3004 RMK AO2 PK WND 23026/1321 SNB13E49 SLP174 P0000 T10391050
PASC 211347Z 24018KT 3SM -SN BR FEW023 OVC035 M04/M05 A3004 RMK AO2 PK WND 23026/1321 SNB13 P0000
PASC 211325Z 24020KT 1 3/4SM -SN BR BKN030 OVC085 M04/M06 A3003 RMK AO2 PK WND 23026/1321 SNB13 P0000 T10441061
PASC 211320Z 24020KT 2SM -SN BR BKN028 OVC085 M04/M07 A3003 RMK AO2 SNB13 P0000 T10441067
PASC 211253Z 23021KT 7SM BKN046 BKN070 OVC090 M04/M07 A3002 RMK AO2 PK WND 24030/1200 SLP169 T10441067
PASC 210753Z 22022KT 10SM BKN090 BKN120 M06/M08 A2997 RMK AO2 PK WND 23027/0716 SLP150 T10561083
PASC 210653Z 22022KT 10SM SCT100 M07/M09 A2998 RMK AO2 PK WND 23026/0653 SLP151 T10671094
PASC 210553Z 22019KT 10SM OVC090 M07/M09 A2998 RMK AO2 PK WND 23026/0534 SLP153 DRSN T10671094 11039 21072 50000